WXM80 ListenWXM80 Stop

You find our weather info also at:

UK Metoffice

WeatherCloud

Weather Underground

Northeastern Weather Network

AWEKAS

Citizen Weather Observer Program (CWOP)

HAMweather, WeatherForYou, PWS Weather


Weather Underground History page Text

Daily Summary for May 6, 2017 Units:  English    Metric   Both
« Previous Day
Next Day »
Daily Weekly Monthly Yearly Custom
  High: Low: Average:
Temperature: 68.4 °F 55.5 °F 61.4 °F
Dew Point: 62.9 °F 51.1 °F 56.8 °F
Humidity: 98 % 63 % 86 %
Wind Speed: 11.5 mph 0.2 mph 4.3 mph
Wind Gust: 23.0 mph - -
Wind:- - South
Pressure: 29.50 in 29.36 in -
Precipitation: 0.03 in    
Historical Graphs
 
 
Tabular Data for May 6, 2017
Time Temperature Dew Point Pressure Wind Wind Speed Wind Gust Humidity Rainfall Rate (Hourly)
00:00 60.9 °F 60.3 °F 29.50 in SSE 4.9 mph 10.4 mph 98 % 0.00 in
00:05 60.9 °F 60.3 °F 29.50 in ESE 5.5 mph 10.0 mph 98 % 0.00 in
00:10 61.0 °F 60.4 °F 29.50 in South 0.8 mph 9.2 mph 98 % 0.00 in
00:15 61.1 °F 60.5 °F 29.50 in SE 8.3 mph 13.8 mph 98 % 0.00 in
00:20 61.2 °F 60.6 °F 29.50 in SSE 6.1 mph 11.5 mph 98 % 0.00 in
00:25 61.4 °F 60.8 °F 29.50 in SSW 3.4 mph 6.9 mph 98 % 0.00 in
00:30 61.4 °F 60.8 °F 29.50 in SSE 5.4 mph 10.0 mph 98 % 0.00 in
00:32 61.4 °F 60.8 °F 29.50 in SSE 5.9 mph 13.0 mph 98 % 0.00 in
00:37 61.6 °F 61.0 °F 29.50 in SSE 6.9 mph 12.7 mph 98 % 0.00 in
00:42 61.6 °F 61.0 °F 29.49 in South 7.3 mph 12.7 mph 98 % 0.00 in
00:47 61.6 °F 61.0 °F 29.50 in SSE 4.5 mph 10.0 mph 98 % 0.00 in
00:52 61.5 °F 60.9 °F 29.50 in SSE 5.3 mph 13.0 mph 98 % 0.00 in
00:57 61.5 °F 60.9 °F 29.49 in South 3.0 mph 11.5 mph 98 % 0.00 in
01:02 61.5 °F 60.6 °F 29.49 in SSE 3.7 mph 9.2 mph 97 % 0.00 in
01:07 61.5 °F 60.6 °F 29.49 in South 6.2 mph 16.1 mph 97 % 0.00 in
01:12 61.5 °F 60.6 °F 29.48 in South 4.7 mph 16.1 mph 97 % 0.00 in
01:17 61.6 °F 60.7 °F 29.48 in SE 9.9 mph 18.4 mph 97 % 0.00 in
01:22 61.6 °F 60.7 °F 29.48 in SSE 7.1 mph 10.0 mph 97 % 0.00 in
01:27 61.7 °F 60.8 °F 29.48 in SSE 6.5 mph 12.0 mph 97 % 0.00 in
01:32 61.7 °F 60.8 °F 29.48 in SSW 5.6 mph 17.3 mph 97 % 0.00 in
01:37 61.8 °F 60.9 °F 29.48 in SSE 9.4 mph 16.0 mph 97 % 0.00 in
01:43 61.9 °F 61.0 °F 29.47 in SSE 4.8 mph 15.0 mph 97 % 0.00 in
01:48 61.9 °F 61.0 °F 29.46 in SE 7.7 mph 17.3 mph 97 % 0.00 in
01:53 61.9 °F 61.0 °F 29.46 in South 9.3 mph 17.3 mph 97 % 0.00 in
01:58 61.8 °F 60.6 °F 29.47 in South 3.9 mph 10.4 mph 96 % 0.00 in
02:03 61.7 °F 60.5 °F 29.47 in South 5.5 mph 9.2 mph 96 % 0.00 in
02:08 61.6 °F 60.4 °F 29.46 in South 3.5 mph 4.0 mph 96 % 0.00 in
02:13 61.6 °F 60.4 °F 29.46 in South 7.4 mph 21.9 mph 96 % 0.00 in
02:18 61.6 °F 60.7 °F 29.45 in SSE 8.2 mph 10.4 mph 97 % 0.01 in
02:23 61.7 °F 60.8 °F 29.45 in South 11.5 mph 23.0 mph 97 % 0.01 in
02:28 61.8 °F 60.9 °F 29.44 in South 4.6 mph 12.7 mph 97 % 0.01 in
02:33 61.8 °F 60.9 °F 29.44 in South 8.2 mph 17.3 mph 97 % 0.01 in
02:38 61.9 °F 61.0 °F 29.43 in South 7.3 mph 11.5 mph 97 % 0.01 in
02:43 61.9 °F 61.0 °F 29.44 in SSE 7.8 mph 16.1 mph 97 % 0.01 in
02:48 61.9 °F 61.0 °F 29.44 in SE 5.8 mph 11.5 mph 97 % 0.01 in
02:53 62.0 °F 61.1 °F 29.43 in South 7.4 mph 23.0 mph 97 % 0.02 in
02:58 62.1 °F 61.2 °F 29.44 in SE 7.9 mph 13.8 mph 97 % 0.02 in
03:03 62.1 °F 61.2 °F 29.42 in SSE 5.0 mph 13.0 mph 97 % 0.02 in
03:08 62.1 °F 61.2 °F 29.43 in SE 3.8 mph 11.5 mph 97 % 0.02 in
03:13 62.1 °F 61.2 °F 29.43 in SSE 5.7 mph 10.0 mph 97 % 0.02 in
03:18 62.2 °F 61.3 °F 29.42 in South 5.5 mph 23.0 mph 97 % 0.01 in
03:24 62.3 °F 61.4 °F 29.42 in SSE 3.5 mph 9.2 mph 97 % 0.01 in
03:29 62.4 °F 61.5 °F 29.41 in SSE 5.7 mph 12.7 mph 97 % 0.01 in
03:34 62.5 °F 61.6 °F 29.41 in South 8.9 mph 16.1 mph 97 % 0.01 in
03:40 62.5 °F 61.6 °F 29.41 in South 7.8 mph 15.0 mph 97 % 0.01 in
03:45 62.6 °F 61.7 °F 29.41 in SW 6.7 mph 11.5 mph 97 % 0.01 in
03:50 62.6 °F 61.7 °F 29.41 in East 6.4 mph 10.4 mph 97 % 0.01 in
03:55 62.7 °F 61.8 °F 29.40 in ESE 9.3 mph 21.0 mph 97 % 0.00 in
04:00 62.9 °F 62.3 °F 29.40 in East 7.7 mph 15.0 mph 98 % 0.00 in
04:05 63.2 °F 62.6 °F 29.40 in SSE 11.2 mph 17.3 mph 98 % 0.00 in
04:10 63.5 °F 62.9 °F 29.39 in South 7.3 mph 16.1 mph 98 % 0.00 in
04:15 63.5 °F 62.9 °F 29.39 in SSW 5.4 mph 10.4 mph 98 % 0.00 in
04:20 63.4 °F 62.8 °F 29.40 in South 7.9 mph 11.0 mph 98 % 0.00 in
04:25 63.2 °F 62.3 °F 29.39 in SSE 8.3 mph 11.5 mph 97 % 0.01 in
04:30 62.9 °F 62.0 °F 29.39 in SSW 5.3 mph 11.5 mph 97 % 0.01 in
04:35 62.6 °F 61.7 °F 29.40 in SSE 6.7 mph 10.0 mph 97 % 0.01 in
04:40 62.3 °F 61.4 °F 29.39 in East 4.4 mph 10.4 mph 97 % 0.01 in
04:45 62.1 °F 61.2 °F 29.39 in SE 4.1 mph 15.0 mph 97 % 0.01 in
04:50 61.9 °F 61.0 °F 29.39 in SSW 3.1 mph 9.2 mph 97 % 0.01 in
04:55 61.7 °F 60.8 °F 29.40 in South 3.1 mph 20.7 mph 97 % 0.01 in
05:01 61.6 °F 60.7 °F 29.39 in South 3.7 mph 10.4 mph 97 % 0.01 in
05:06 61.4 °F 60.5 °F 29.39 in South 5.5 mph 11.5 mph 97 % 0.01 in
05:11 61.3 °F 60.4 °F 29.38 in South 7.7 mph 15.0 mph 97 % 0.01 in
05:16 61.2 °F 60.3 °F 29.39 in SSE 5.6 mph 13.8 mph 97 % 0.01 in
05:21 61.2 °F 60.3 °F 29.38 in South 5.5 mph 16.1 mph 97 % 0.01 in
05:26 61.2 °F 60.3 °F 29.37 in SSE 9.0 mph 20.0 mph 97 % 0.00 in
05:31 61.1 °F 60.3 °F 29.38 in South 3.0 mph 13.0 mph 97 % 0.00 in
05:36 61.1 °F 60.3 °F 29.37 in SSE 5.0 mph 15.0 mph 97 % 0.00 in
05:41 61.2 °F 60.3 °F 29.37 in South 3.0 mph 12.0 mph 97 % 0.00 in
05:46 61.2 °F 60.3 °F 29.38 in South 6.0 mph 14.0 mph 97 % 0.00 in
05:51 61.2 °F 60.4 °F 29.38 in SSE 3.0 mph 12.0 mph 97 % 0.00 in
05:56 61.3 °F 60.4 °F 29.38 in SSE 5.0 mph 15.0 mph 97 % 0.00 in
06:01 61.3 °F 60.4 °F 29.38 in ESE 4.9 mph 13.8 mph 97 % 0.00 in
06:06 61.2 °F 60.3 °F 29.39 in South 6.9 mph 12.7 mph 97 % 0.00 in
06:11 61.1 °F 60.2 °F 29.40 in SSW 4.6 mph 10.4 mph 97 % 0.00 in
06:16 60.9 °F 60.0 °F 29.40 in South 4.3 mph 6.9 mph 97 % 0.00 in
06:21 60.7 °F 59.8 °F 29.40 in SSW 4.0 mph 10.4 mph 97 % 0.00 in
06:26 60.6 °F 59.7 °F 29.40 in SSW 5.2 mph 12.7 mph 97 % 0.00 in
06:31 60.5 °F 59.6 °F 29.40 in SSW 6.3 mph 10.4 mph 97 % 0.00 in
06:36 60.4 °F 59.5 °F 29.40 in SW 4.2 mph 9.0 mph 97 % 0.00 in
06:41 60.4 °F 59.5 °F 29.40 in SSE 5.1 mph 10.4 mph 97 % 0.00 in
06:46 60.3 °F 59.4 °F 29.41 in South 2.0 mph 11.5 mph 97 % 0.00 in
06:51 60.3 °F 59.4 °F 29.41 in South 2.6 mph 4.0 mph 97 % 0.00 in
06:56 60.3 °F 59.4 °F 29.40 in SSW 3.2 mph 8.1 mph 97 % 0.00 in
07:01 60.2 °F 59.3 °F 29.40 in SSE 2.8 mph 11.0 mph 97 % 0.00 in
07:06 60.2 °F 59.3 °F 29.40 in SE 4.7 mph 10.4 mph 97 % 0.00 in
07:11 60.1 °F 59.2 °F 29.40 in SE 6.0 mph 10.0 mph 97 % 0.00 in
07:16 60.0 °F 59.1 °F 29.40 in SSE 1.8 mph 6.9 mph 97 % 0.00 in
07:21 60.0 °F 58.9 °F 29.40 in South 2.4 mph 5.0 mph 96 % 0.00 in
07:26 60.0 °F 58.9 °F 29.40 in South 2.2 mph 10.4 mph 96 % 0.00 in
07:31 59.9 °F 58.8 °F 29.40 in SSW 4.3 mph 6.0 mph 96 % 0.00 in
07:37 59.8 °F 58.7 °F 29.41 in SSE 3.3 mph 11.5 mph 96 % 0.00 in
07:42 59.8 °F 58.7 °F 29.41 in SSW 2.2 mph 3.5 mph 96 % 0.00 in
07:47 59.7 °F 58.6 °F 29.40 in SSW 1.3 mph 4.6 mph 96 % 0.00 in
07:52 59.7 °F 58.6 °F 29.40 in South 3.1 mph 11.5 mph 96 % 0.00 in
07:57 59.6 °F 58.2 °F 29.40 in SSW 2.9 mph 4.6 mph 95 % 0.00 in
08:02 59.6 °F 58.2 °F 29.40 in ESE 3.8 mph 6.9 mph 95 % 0.00 in
08:07 59.5 °F 58.1 °F 29.41 in SE 3.2 mph 5.8 mph 95 % 0.00 in
08:12 59.5 °F 58.1 °F 29.40 in South 1.5 mph 4.0 mph 95 % 0.00 in
08:17 59.6 °F 58.2 °F 29.40 in SSE 1.1 mph 4.0 mph 95 % 0.00 in
08:22 59.6 °F 58.2 °F 29.40 in SSE 4.4 mph 8.1 mph 95 % 0.00 in
08:27 59.6 °F 57.9 °F 29.40 in ESE 0.6 mph 2.0 mph 94 % 0.00 in
08:32 59.6 °F 58.2 °F 29.40 in SE 1.5 mph 7.0 mph 95 % 0.00 in
08:37 59.7 °F 58.0 °F 29.40 in SSE 0.8 mph 3.5 mph 94 % 0.00 in
08:42 59.7 °F 58.0 °F 29.40 in East 4.6 mph 11.5 mph 94 % 0.00 in
08:47 59.7 °F 57.7 °F 29.41 in SSE 1.7 mph 4.0 mph 93 % 0.00 in
08:49 59.7 °F 57.7 °F 29.40 in SSE 0.2 mph 4.6 mph 93 % 0.00 in
08:53 59.7 °F 57.4 °F 29.41 in SSE 4.5 mph 8.1 mph 92 % 0.00 in
08:58 59.8 °F 57.2 °F 29.41 in SE 2.7 mph 5.0 mph 91 % 0.00 in
09:04 59.9 °F 57.3 °F 29.41 in South 2.4 mph 8.1 mph 91 % 0.00 in
09:09 60.0 °F 57.4 °F 29.42 in SSE 5.5 mph 8.1 mph 91 % 0.00 in
09:14 60.1 °F 57.5 °F 29.41 in SE 2.8 mph 5.0 mph 91 % 0.00 in
09:19 60.2 °F 57.3 °F 29.41 in SSE 4.3 mph 12.0 mph 90 % 0.00 in
09:24 60.3 °F 57.4 °F 29.41 in SSE 3.7 mph 6.9 mph 90 % 0.00 in
09:29 60.4 °F 57.1 °F 29.42 in SSE 3.3 mph 8.1 mph 89 % 0.00 in
09:34 60.5 °F 56.6 °F 29.41 in SSE 3.5 mph 10.4 mph 87 % 0.00 in
09:39 60.6 °F 56.7 °F 29.41 in SSE 4.8 mph 8.1 mph 87 % 0.00 in
09:44 60.7 °F 56.5 °F 29.41 in South 2.3 mph 5.0 mph 86 % 0.00 in
09:49 60.6 °F 55.7 °F 29.41 in SSE 4.0 mph 9.2 mph 84 % 0.00 in
09:54 60.6 °F 56.1 °F 29.41 in SSE 3.4 mph 5.8 mph 85 % 0.00 in
09:59 60.5 °F 55.3 °F 29.41 in SE 3.6 mph 11.5 mph 83 % 0.00 in
10:04 60.6 °F 56.1 °F 29.42 in SE 3.9 mph 6.9 mph 85 % 0.00 in
10:09 60.6 °F 55.4 °F 29.42 in SSW 3.6 mph 5.0 mph 83 % 0.00 in
10:14 60.7 °F 55.2 °F 29.42 in South 2.6 mph 4.6 mph 82 % 0.00 in
10:19 60.8 °F 54.9 °F 29.42 in SE 7.5 mph 14.0 mph 81 % 0.00 in
10:24 60.8 °F 54.9 °F 29.42 in South 8.3 mph 13.8 mph 81 % 0.00 in
10:29 60.8 °F 54.9 °F 29.42 in SE 6.8 mph 17.0 mph 81 % 0.00 in
10:34 60.8 °F 54.9 °F 29.41 in South 2.6 mph 4.6 mph 81 % 0.00 in
10:39 61.0 °F 55.1 °F 29.41 in SE 1.9 mph 8.1 mph 81 % 0.00 in
10:44 61.4 °F 55.5 °F 29.41 in SSW 5.5 mph 9.2 mph 81 % 0.00 in
10:49 61.7 °F 55.5 °F 29.42 in South 3.8 mph 8.0 mph 80 % 0.00 in
10:54 61.7 °F 54.8 °F 29.41 in WSW 4.6 mph 6.0 mph 78 % 0.00 in
10:59 61.9 °F 55.0 °F 29.42 in SSW 3.5 mph 12.7 mph 78 % 0.00 in
11:04 62.4 °F 55.4 °F 29.42 in South 3.5 mph 6.9 mph 78 % 0.00 in
11:09 63.0 °F 54.9 °F 29.41 in SE 10.3 mph 16.1 mph 75 % 0.00 in
11:14 63.8 °F 57.2 °F 29.41 in SSW 6.1 mph 8.0 mph 79 % 0.00 in
11:19 64.8 °F 57.4 °F 29.41 in SE 4.1 mph 8.1 mph 77 % 0.00 in
11:24 65.5 °F 57.7 °F 29.41 in South 3.8 mph 6.9 mph 76 % 0.00 in
11:29 66.1 °F 57.6 °F 29.42 in SSE 5.7 mph 10.0 mph 74 % 0.00 in
11:34 66.4 °F 56.3 °F 29.41 in SSE 7.2 mph 20.0 mph 70 % 0.00 in
11:39 66.3 °F 55.8 °F 29.41 in SSW 5.7 mph 15.0 mph 69 % 0.00 in
11:44 66.5 °F 56.4 °F 29.41 in South 5.3 mph 10.4 mph 70 % 0.00 in
11:50 66.6 °F 56.1 °F 29.41 in South 4.5 mph 15.0 mph 69 % 0.00 in
11:55 66.7 °F 55.4 °F 29.41 in South 3.4 mph 11.5 mph 67 % 0.00 in
12:00 66.7 °F 55.4 °F 29.41 in South 7.7 mph 11.5 mph 67 % 0.00 in
12:05 67.0 °F 55.7 °F 29.40 in South 4.4 mph 11.5 mph 67 % 0.00 in
12:10 67.3 °F 56.4 °F 29.40 in SSW 4.7 mph 10.4 mph 68 % 0.00 in
12:15 67.5 °F 55.3 °F 29.40 in SSW 6.5 mph 16.1 mph 65 % 0.00 in
12:20 67.7 °F 55.9 °F 29.40 in SSE 3.5 mph 6.9 mph 66 % 0.00 in
12:25 68.1 °F 55.9 °F 29.40 in South 4.6 mph 16.1 mph 65 % 0.00 in
12:30 67.8 °F 54.7 °F 29.40 in SSW 5.8 mph 12.7 mph 63 % 0.00 in
12:35 67.9 °F 54.8 °F 29.40 in South 6.3 mph 9.2 mph 63 % 0.00 in
12:40 67.6 °F 55.0 °F 29.39 in SW 3.9 mph 9.0 mph 64 % 0.00 in
12:45 67.9 °F 55.7 °F 29.40 in SSE 7.2 mph 13.0 mph 65 % 0.00 in
12:50 68.2 °F 56.0 °F 29.39 in SSW 2.0 mph 10.4 mph 65 % 0.00 in
12:55 68.4 °F 55.7 °F 29.40 in SSW 4.3 mph 11.5 mph 64 % 0.00 in
13:00 68.4 °F 55.7 °F 29.40 in SSE 4.3 mph 12.0 mph 64 % 0.00 in
13:05 67.8 °F 56.0 °F 29.40 in South 4.0 mph 10.4 mph 66 % 0.00 in
13:10 67.8 °F 56.0 °F 29.40 in South 4.3 mph 9.0 mph 66 % 0.00 in
13:15 68.0 °F 55.4 °F 29.40 in South 5.6 mph 11.5 mph 64 % 0.00 in
13:20 67.5 °F 55.3 °F 29.41 in SSW 6.4 mph 11.0 mph 65 % 0.00 in
13:25 67.0 °F 54.8 °F 29.40 in South 6.3 mph 15.0 mph 65 % 0.00 in
13:30 67.3 °F 56.0 °F 29.40 in South 4.0 mph 6.0 mph 67 % 0.00 in
13:35 67.2 °F 55.5 °F 29.40 in SSE 5.7 mph 13.0 mph 66 % 0.00 in
13:40 67.1 °F 55.4 °F 29.40 in SE 4.5 mph 8.1 mph 66 % 0.00 in
13:45 66.6 °F 55.3 °F 29.40 in East 4.0 mph 6.9 mph 67 % 0.00 in
13:50 66.7 °F 55.4 °F 29.40 in SSW 6.3 mph 10.4 mph 67 % 0.00 in
13:55 66.7 °F 55.8 °F 29.41 in SSW 5.6 mph 11.5 mph 68 % 0.00 in
14:00 66.9 °F 56.0 °F 29.41 in SE 4.3 mph 15.0 mph 68 % 0.00 in
14:05 66.7 °F 55.4 °F 29.41 in South 7.9 mph 11.5 mph 67 % 0.00 in
14:10 66.3 °F 55.0 °F 29.40 in SSE 7.1 mph 16.1 mph 67 % 0.00 in
14:15 65.7 °F 54.8 °F 29.41 in SE 5.0 mph 17.3 mph 68 % 0.00 in
14:20 65.2 °F 55.2 °F 29.41 in South 3.7 mph 8.1 mph 70 % 0.00 in
14:26 65.1 °F 55.9 °F 29.41 in South 5.0 mph 10.0 mph 72 % 0.00 in
14:31 65.4 °F 55.7 °F 29.41 in South 3.7 mph 11.5 mph 71 % 0.00 in
14:36 65.7 °F 56.1 °F 29.41 in South 3.0 mph 10.0 mph 71 % 0.00 in
14:41 65.4 °F 55.4 °F 29.40 in South 5.0 mph 18.0 mph 70 % 0.00 in
14:46 65.0 °F 55.0 °F 29.40 in South 5.0 mph 12.0 mph 70 % 0.00 in
14:51 65.2 °F 55.2 °F 29.40 in South 6.0 mph 14.0 mph 70 % 0.00 in
14:56 65.2 °F 55.2 °F 29.39 in SSE 3.0 mph 14.0 mph 70 % 0.00 in
14:57 65.4 °F 55.4 °F 29.39 in SSE 7.1 mph 13.0 mph 70 % 0.00 in
15:02 65.3 °F 54.9 °F 29.39 in South 7.0 mph 18.4 mph 69 % 0.00 in
15:07 65.3 °F 55.3 °F 29.38 in SSW 6.4 mph 9.2 mph 70 % 0.00 in
15:12 64.8 °F 54.8 °F 29.38 in South 4.4 mph 14.0 mph 70 % 0.00 in
15:17 64.4 °F 54.8 °F 29.38 in SSE 3.7 mph 5.0 mph 71 % 0.00 in
15:22 64.4 °F 54.8 °F 29.38 in South 2.8 mph 13.8 mph 71 % 0.00 in
15:27 64.6 °F 55.4 °F 29.38 in South 2.3 mph 6.9 mph 72 % 0.00 in
15:32 65.1 °F 55.8 °F 29.38 in SSE 3.6 mph 8.1 mph 72 % 0.00 in
15:37 65.6 °F 55.2 °F 29.38 in West 3.5 mph 4.6 mph 69 % 0.00 in
15:42 65.9 °F 55.0 °F 29.38 in South 3.4 mph 9.2 mph 68 % 0.00 in
15:47 66.0 °F 55.5 °F 29.39 in South 2.4 mph 6.9 mph 69 % 0.00 in
15:52 66.1 °F 54.8 °F 29.38 in SE 7.5 mph 18.4 mph 67 % 0.00 in
15:57 66.1 °F 55.2 °F 29.38 in SSW 3.2 mph 7.0 mph 68 % 0.00 in
16:03 66.3 °F 55.8 °F 29.36 in SSW 3.0 mph 9.2 mph 69 % 0.00 in
16:08 66.7 °F 56.2 °F 29.36 in SSW 3.3 mph 5.8 mph 69 % 0.00 in
16:13 67.0 °F 56.1 °F 29.38 in SSE 5.2 mph 9.2 mph 68 % 0.00 in
16:18 66.4 °F 55.5 °F 29.39 in SE 6.9 mph 15.0 mph 68 % 0.00 in
16:23 65.9 °F 55.4 °F 29.39 in South 4.4 mph 8.1 mph 69 % 0.00 in
16:28 65.7 °F 55.6 °F 29.39 in SSE 3.9 mph 12.7 mph 70 % 0.00 in
16:33 65.4 °F 55.4 °F 29.39 in SSE 8.2 mph 13.8 mph 70 % 0.00 in
16:38 64.7 °F 55.1 °F 29.39 in SSE 4.1 mph 12.7 mph 71 % 0.00 in
16:43 63.9 °F 54.7 °F 29.40 in South 3.6 mph 6.9 mph 72 % 0.00 in
16:48 63.5 °F 54.7 °F 29.40 in SSE 4.6 mph 11.5 mph 73 % 0.00 in
16:53 62.7 °F 54.3 °F 29.40 in SW 3.8 mph 8.1 mph 74 % 0.00 in
16:58 62.2 °F 54.2 °F 29.40 in South 4.1 mph 10.4 mph 75 % 0.00 in
17:03 62.1 °F 54.4 °F 29.40 in South 3.3 mph 6.9 mph 76 % 0.00 in
17:08 62.0 °F 54.3 °F 29.40 in South 2.8 mph 6.9 mph 76 % 0.00 in
17:13 62.0 °F 55.1 °F 29.38 in WSW 1.1 mph 3.5 mph 78 % 0.00 in
17:18 62.2 °F 54.9 °F 29.38 in SSE 2.5 mph 4.6 mph 77 % 0.00 in
17:23 62.3 °F 55.0 °F 29.38 in WSW 4.1 mph 5.8 mph 77 % 0.00 in
17:28 62.2 °F 54.9 °F 29.38 in SE 5.5 mph 11.5 mph 77 % 0.00 in
17:29 62.1 °F 54.4 °F 29.38 in SE 3.0 mph 11.5 mph 76 % 0.00 in
17:34 62.0 °F 54.7 °F 29.37 in SE 2.0 mph 4.6 mph 77 % 0.00 in
17:39 62.0 °F 54.7 °F 29.36 in SSW 2.6 mph 5.8 mph 77 % 0.00 in
17:44 62.0 °F 54.7 °F 29.36 in South 1.8 mph 3.5 mph 77 % 0.00 in
17:49 61.8 °F 54.5 °F 29.36 in SSW 1.1 mph 3.5 mph 77 % 0.00 in
17:54 61.9 °F 55.0 °F 29.37 in SSW 2.5 mph 6.9 mph 78 % 0.00 in
17:59 61.8 °F 54.5 °F 29.38 in South 6.3 mph 11.5 mph 77 % 0.00 in
18:04 61.4 °F 54.1 °F 29.38 in South 5.9 mph 11.5 mph 77 % 0.00 in
18:09 61.0 °F 54.1 °F 29.38 in SSE 7.7 mph 10.4 mph 78 % 0.00 in
18:14 60.7 °F 54.1 °F 29.38 in South 4.0 mph 5.8 mph 79 % 0.00 in
18:19 60.6 °F 54.4 °F 29.37 in SSE 6.8 mph 8.0 mph 80 % 0.00 in
18:24 60.2 °F 54.0 °F 29.37 in SE 4.4 mph 12.7 mph 80 % 0.00 in
18:29 59.9 °F 53.7 °F 29.36 in South 3.7 mph 6.9 mph 80 % 0.00 in
18:35 59.7 °F 53.9 °F 29.36 in ESE 1.7 mph 6.9 mph 81 % 0.00 in
18:40 59.5 °F 53.7 °F 29.36 in SSE 6.0 mph 12.7 mph 81 % 0.00 in
18:45 59.4 °F 53.9 °F 29.36 in SE 2.7 mph 9.2 mph 82 % 0.00 in
18:50 59.2 °F 53.7 °F 29.36 in SSE 3.1 mph 5.8 mph 82 % 0.00 in
18:55 59.1 °F 53.6 °F 29.36 in SSE 6.7 mph 11.5 mph 82 % 0.00 in
19:00 58.9 °F 53.7 °F 29.36 in SSW 0.8 mph 11.5 mph 83 % 0.00 in
19:05 58.7 °F 53.5 °F 29.36 in SSW 0.3 mph 2.3 mph 83 % 0.00 in
19:10 58.5 °F 53.4 °F 29.36 in SSE 2.9 mph 4.6 mph 83 % 0.00 in
19:15 58.3 °F 53.5 °F 29.36 in South 4.7 mph 6.9 mph 84 % 0.00 in
19:20 58.2 °F 53.4 °F 29.37 in SSE 2.4 mph 7.0 mph 84 % 0.00 in
19:25 58.1 °F 53.6 °F 29.37 in SE 1.9 mph 5.8 mph 85 % 0.00 in
19:30 57.9 °F 53.4 °F 29.37 in South 6.0 mph 10.4 mph 85 % 0.00 in
19:35 57.7 °F 53.2 °F 29.37 in SSW 4.0 mph 7.0 mph 85 % 0.00 in
19:40 57.5 °F 53.3 °F 29.37 in South 4.7 mph 10.4 mph 86 % 0.00 in
19:46 57.4 °F 53.2 °F 29.37 in SSE 2.0 mph 9.0 mph 86 % 0.00 in
19:51 57.3 °F 53.1 °F 29.38 in South 6.0 mph 14.0 mph 86 % 0.00 in
19:52 57.3 °F 53.1 °F 29.37 in South 4.7 mph 8.1 mph 86 % 0.00 in
19:58 57.2 °F 53.0 °F 29.37 in SSW 4.6 mph 6.9 mph 86 % 0.00 in
20:03 57.0 °F 53.2 °F 29.38 in ESE 3.9 mph 6.9 mph 87 % 0.00 in
20:08 56.9 °F 53.1 °F 29.37 in SSE 3.7 mph 5.8 mph 87 % 0.00 in
20:13 56.8 °F 53.0 °F 29.39 in SE 6.3 mph 11.5 mph 87 % 0.00 in
20:18 56.8 °F 53.3 °F 29.39 in SSE 2.7 mph 5.8 mph 88 % 0.00 in
20:23 56.7 °F 53.2 °F 29.39 in South 6.4 mph 12.7 mph 88 % 0.00 in
20:28 56.6 °F 53.1 °F 29.38 in South 3.7 mph 8.1 mph 88 % 0.00 in
20:33 56.6 °F 53.1 °F 29.38 in SSE 10.2 mph 16.1 mph 88 % 0.00 in
20:38 56.5 °F 53.0 °F 29.39 in SSE 6.4 mph 12.7 mph 88 % 0.00 in
20:43 56.4 °F 53.2 °F 29.39 in SE 2.5 mph 3.5 mph 89 % 0.00 in
20:49 56.4 °F 53.2 °F 29.39 in SSW 2.3 mph 10.4 mph 89 % 0.00 in
20:54 56.4 °F 53.2 °F 29.39 in SSE 2.5 mph 3.5 mph 89 % 0.00 in
20:59 56.4 °F 53.2 °F 29.39 in South 2.2 mph 8.1 mph 89 % 0.00 in
21:04 56.4 °F 53.2 °F 29.40 in South 3.5 mph 8.1 mph 89 % 0.00 in
21:09 56.4 °F 53.5 °F 29.40 in South 0.8 mph 2.3 mph 90 % 0.00 in
21:14 56.4 °F 53.5 °F 29.41 in SW 0.8 mph 2.3 mph 90 % 0.00 in
21:19 56.5 °F 53.6 °F 29.41 in SSW 1.0 mph 6.9 mph 90 % 0.00 in
21:24 56.5 °F 53.6 °F 29.41 in SW 0.6 mph 6.9 mph 90 % 0.00 in
21:29 56.5 °F 53.6 °F 29.41 in SSW 2.0 mph 5.8 mph 90 % 0.00 in
21:34 56.5 °F 53.6 °F 29.41 in SSW 3.0 mph 4.6 mph 90 % 0.00 in
21:39 56.5 °F 53.9 °F 29.41 in SSW 1.4 mph 3.5 mph 91 % 0.00 in
21:44 56.5 °F 53.9 °F 29.41 in SSW 0.8 mph 4.6 mph 91 % 0.00 in
21:49 56.5 °F 53.9 °F 29.42 in SSW 1.0 mph 3.0 mph 91 % 0.00 in
21:54 56.5 °F 53.9 °F 29.42 in SSW 2.6 mph 3.5 mph 91 % 0.00 in
21:59 56.5 °F 53.9 °F 29.42 in SSW 1.2 mph 3.5 mph 91 % 0.00 in
22:04 56.4 °F 53.8 °F 29.42 in SSW 0.7 mph 1.2 mph 91 % 0.00 in
22:09 56.4 °F 53.8 °F 29.42 in SSW 1.3 mph 3.0 mph 91 % 0.00 in
22:14 56.4 °F 53.8 °F 29.42 in SW 0.7 mph 2.0 mph 91 % 0.00 in
22:15 56.4 °F 53.8 °F 29.42 in SW 0.9 mph 2.3 mph 91 % 0.00 in
22:20 56.4 °F 53.8 °F 29.42 in SSW 1.0 mph 3.5 mph 91 % 0.00 in
22:25 56.3 °F 53.7 °F 29.42 in SW 0.5 mph 3.5 mph 91 % 0.00 in
22:30 56.3 °F 53.7 °F 29.42 in WSW 1.0 mph 2.3 mph 91 % 0.00 in
22:35 56.2 °F 53.6 °F 29.43 in WSW 1.6 mph 4.0 mph 91 % 0.00 in
22:40 56.2 °F 53.6 °F 29.43 in SW 0.3 mph 3.5 mph 91 % 0.00 in
22:45 56.2 °F 53.6 °F 29.43 in SW 0.5 mph 3.5 mph 91 % 0.00 in
22:50 56.2 °F 53.6 °F 29.43 in WSW 0.9 mph 3.5 mph 91 % 0.00 in
22:55 56.2 °F 53.9 °F 29.43 in SW 0.7 mph 2.3 mph 92 % 0.00 in
23:01 56.2 °F 53.9 °F 29.43 in WSW 2.3 mph 7.0 mph 92 % 0.00 in
23:06 56.1 °F 53.5 °F 29.43 in SW 1.7 mph 5.8 mph 91 % 0.00 in
23:11 56.1 °F 53.5 °F 29.43 in SW 3.5 mph 6.0 mph 91 % 0.00 in
23:16 56.0 °F 53.4 °F 29.43 in WSW 2.5 mph 5.8 mph 91 % 0.00 in
23:21 55.9 °F 53.0 °F 29.43 in SW 0.7 mph 2.3 mph 90 % 0.00 in
23:26 55.9 °F 52.7 °F 29.43 in WSW 0.2 mph 1.2 mph 89 % 0.00 in
23:31 55.8 °F 52.6 °F 29.44 in WSW 0.5 mph 3.0 mph 89 % 0.00 in
23:36 55.7 °F 52.2 °F 29.44 in WSW 1.2 mph 3.5 mph 88 % 0.00 in
23:41 55.7 °F 52.2 °F 29.44 in SW 1.5 mph 2.0 mph 88 % 0.00 in
23:46 55.6 °F 51.8 °F 29.44 in SW 2.2 mph 4.6 mph 87 % 0.00 in
23:51 55.5 °F 51.4 °F 29.44 in SW 0.2 mph 3.5 mph 86 % 0.00 in
23:56 55.5 °F 51.1 °F 29.44 in SSW 1.3 mph 6.0 mph 85 % 0.00 in
Crab Meadow Weather
Compliments of Weather Underground - 3 mb

Script developed by  Jim McMurry - jmcmurry@mwt.net Adapted for the template by  Wim van der Kuil - Leuven-Template.eu

Recycling: The U.S. is the #1 trash-producing country in the world at 1,609 pounds per person per year. This means that 5% of the world's people generate 40% of the world's waste.